createdAt,value
2019-05-14T00:05:01.566Z,102932.11
2019-05-14T00:10:05.769Z,102938.89
2019-05-14T00:15:11.085Z,102935.70
2019-05-14T00:20:15.314Z,102935.51
2019-05-14T00:25:19.287Z,102926.92
2019-05-14T00:30:23.356Z,102923.94
2019-05-14T00:35:28.499Z,102925.91
2019-05-14T00:40:32.511Z,102921.46
2019-05-14T00:45:36.635Z,102925.20
2019-05-14T00:50:42.136Z,102924.22
2019-05-14T00:55:46.542Z,102919.27
2019-05-14T01:00:52.572Z,102916.84
2019-05-14T01:05:56.300Z,102915.17
2019-05-14T01:11:01.621Z,102916.02
2019-05-14T01:16:05.921Z,102918.56
2019-05-14T01:21:11.722Z,102929.62
2019-05-14T01:26:15.828Z,102927.44
2019-05-14T01:31:21.931Z,102923.81
2019-05-14T01:36:26.083Z,102917.06
2019-05-14T01:41:31.751Z,102921.26
2019-05-14T01:46:35.893Z,102924.16
2019-05-14T01:51:42.133Z,102923.64
2019-05-14T01:56:45.748Z,102925.20
2019-05-14T02:01:51.734Z,102923.88
2019-05-14T02:06:55.581Z,102920.94
2019-05-14T02:12:02.014Z,102917.77
2019-05-14T02:17:05.307Z,102914.84
2019-05-14T02:22:11.283Z,102915.28
2019-05-14T02:27:15.510Z,102914.04
2019-05-14T02:32:19.606Z,102916.81
2019-05-14T02:37:23.628Z,102918.03
2019-05-14T02:42:28.943Z,102911.34
2019-05-14T02:47:33.163Z,102915.03
2019-05-14T02:52:40.393Z,102909.81
2019-05-14T02:57:42.921Z,102906.67
2019-05-14T03:02:49.427Z,102904.16
2019-05-14T03:07:52.942Z,102910.59
2019-05-14T03:12:59.067Z,102900.61
2019-05-14T03:18:03.292Z,102899.30
2019-05-14T03:23:09.884Z,102895.78
2019-05-14T03:28:13.061Z,102902.80
2019-05-14T03:33:22.001Z,102895.09
2019-05-14T03:38:23.031Z,102901.02
2019-05-14T03:43:29.605Z,102905.17
2019-05-14T03:48:33.160Z,102905.31
2019-05-14T03:53:55.938Z,102909.45
2019-05-14T03:58:49.505Z,102906.39
2019-05-14T04:03:52.935Z,102901.42
2019-05-14T04:09:00.621Z,102907.38
2019-05-14T04:14:05.015Z,102907.33
2019-05-14T04:19:10.931Z,102902.53
2019-05-14T04:24:14.992Z,102900.89
2019-05-14T04:29:20.189Z,102911.86
2019-05-14T04:34:24.372Z,102907.05
2019-05-14T04:39:31.505Z,102896.84
2019-05-14T04:44:35.987Z,102893.08
2019-05-14T04:49:40.684Z,102900.08
2019-05-14T04:54:46.172Z,102904.77
2019-05-14T04:59:50.532Z,102892.41
2019-05-14T05:04:55.026Z,102896.92
2019-05-14T05:09:59.550Z,102890.57
2019-05-14T05:15:04.038Z,102885.61
2019-05-14T05:20:09.936Z,102902.19
2019-05-14T05:25:14.320Z,102902.48
2019-05-14T05:30:21.121Z,102904.63
2019-05-14T05:35:25.322Z,102916.20
2019-05-14T05:40:29.393Z,102914.56
2019-05-14T05:45:33.520Z,102913.02
2019-05-14T05:50:38.869Z,102914.09
2019-05-14T05:55:43.555Z,102902.61
2019-05-14T06:00:49.893Z,102903.44
2019-05-14T06:05:53.658Z,102895.13
2019-05-14T06:10:59.339Z,102903.92
2019-05-14T06:16:03.731Z,102892.28
2019-05-14T06:21:09.211Z,102892.09
2019-05-14T06:26:13.422Z,102893.67
2019-05-14T06:31:19.272Z,102898.77
2019-05-14T06:36:23.278Z,102890.76
2019-05-14T06:41:28.403Z,102883.27
2019-05-14T06:46:32.869Z,102891.89
2019-05-14T06:51:39.573Z,102892.49
2019-05-14T06:56:43.755Z,102896.70
2019-05-14T07:01:49.018Z,102923.66
2019-05-14T07:06:53.302Z,102893.07
2019-05-14T07:11:58.709Z,102900.58
2019-05-14T07:17:02.897Z,102909.31
2019-05-14T07:22:08.900Z,102908.09
2019-05-14T07:27:12.781Z,102908.47
2019-05-14T07:32:19.121Z,102918.56
2019-05-14T07:37:22.563Z,102900.61
2019-05-14T07:42:28.893Z,102897.09
2019-05-14T07:47:33.273Z,102888.83
2019-05-14T07:52:45.365Z,102901.98
2019-05-14T07:57:43.343Z,102892.84
2019-05-14T08:02:49.063Z,102888.88
2019-05-14T08:07:53.082Z,102893.03
2019-05-14T08:12:58.872Z,102891.16
2019-05-14T08:18:03.083Z,102872.62
2019-05-14T08:23:09.068Z,102882.66
2019-05-14T08:28:13.148Z,102880.78
2019-05-14T08:33:18.402Z,102867.60
2019-05-14T08:38:22.981Z,102886.02
2019-05-14T08:43:29.108Z,102856.94
2019-05-14T08:48:33.055Z,102860.66
2019-05-14T08:53:38.429Z,102847.09
2019-05-14T08:58:42.883Z,102834.96
2019-05-14T09:03:49.162Z,102833.97
2019-05-14T09:08:52.702Z,102826.30
2019-05-14T09:13:59.228Z,102839.00
2019-05-14T09:19:02.504Z,102814.17
2019-05-14T09:24:09.375Z,102823.41
2019-05-14T09:29:22.099Z,102816.30
2019-05-14T09:34:19.616Z,102822.44
2019-05-14T09:39:23.854Z,102797.73
2019-05-14T09:44:29.264Z,102799.95
2019-05-14T09:49:33.475Z,102795.53
2019-05-14T09:54:41.491Z,102799.45
2019-05-14T09:59:43.601Z,102785.91
2019-05-14T10:04:49.048Z,102783.48
2019-05-14T10:09:53.246Z,102766.13
2019-05-14T10:14:59.213Z,102771.69
2019-05-14T10:20:03.591Z,102770.16
2019-05-14T10:25:09.077Z,102770.69
2019-05-14T10:30:14.632Z,102764.50
2019-05-14T10:35:19.430Z,102766.19
2019-05-14T10:40:23.429Z,102771.61
2019-05-14T10:45:28.913Z,102765.86
2019-05-14T10:50:33.192Z,102758.13
2019-05-14T10:55:38.713Z,102749.81
2019-05-14T11:00:43.124Z,102749.86
2019-05-14T11:05:48.152Z,102761.97
2019-05-14T11:10:52.397Z,102748.59
2019-05-14T11:15:59.269Z,102748.05
2019-05-14T11:21:18.764Z,102740.58
2019-05-14T11:26:09.206Z,102733.59
2019-05-14T11:31:13.653Z,102726.94
2019-05-14T11:36:20.840Z,102733.45
2019-05-14T11:41:25.042Z,102735.66
2019-05-14T11:46:41.765Z,102727.34
2019-05-14T11:51:58.417Z,102728.42
2019-05-14T11:56:42.210Z,102718.89
2019-05-14T12:01:49.204Z,102722.16
2019-05-14T12:06:52.413Z,102709.02
2019-05-14T12:11:58.706Z,102713.16
2019-05-14T12:17:02.553Z,102698.02
2019-05-14T12:22:11.023Z,102707.69
2019-05-14T12:27:12.819Z,102706.05
2019-05-14T12:32:18.907Z,102703.95
2019-05-14T12:37:22.785Z,102690.87
2019-05-14T12:42:29.451Z,102682.57
2019-05-14T12:47:32.609Z,102678.17
2019-05-14T12:52:38.886Z,102676.98
2019-05-14T12:57:42.706Z,102658.45
2019-05-14T13:02:46.832Z,102654.58
2019-05-14T13:07:51.304Z,102645.71
2019-05-14T13:12:55.309Z,102657.70
2019-05-14T13:17:59.426Z,102657.56
2019-05-14T13:23:03.492Z,102648.05
2019-05-14T13:28:09.015Z,102646.20
2019-05-14T13:33:13.306Z,102634.84
2019-05-14T13:38:17.503Z,102630.48
2019-05-14T13:43:21.727Z,102618.95
2019-05-14T13:48:25.837Z,102646.39
2019-05-14T13:53:29.993Z,102627.60
2019-05-14T13:58:34.140Z,102615.28
2019-05-14T14:03:48.897Z,102613.59
2019-05-14T14:08:44.262Z,102613.80
2019-05-14T14:13:49.102Z,102608.26
2019-05-14T14:18:53.577Z,102598.32
2019-05-14T14:23:59.327Z,102593.81
2019-05-14T14:29:03.582Z,102582.75
2019-05-14T14:34:09.120Z,102574.02
2019-05-14T14:39:13.446Z,102578.88
2019-05-14T14:44:19.075Z,102584.85
2019-05-14T14:49:23.473Z,102583.02
2019-05-14T14:54:28.815Z,102575.08
2019-05-14T14:59:33.140Z,102578.80
2019-05-14T15:04:39.562Z,102579.94
2019-05-14T15:09:42.997Z,102576.91
2019-05-14T15:14:48.818Z,102564.70
2019-05-14T15:19:53.005Z,102555.59
2019-05-14T15:24:58.604Z,102546.57
2019-05-14T15:30:03.185Z,102559.50
2019-05-14T15:35:11.191Z,102548.37
2019-05-14T15:40:22.146Z,102554.52
2019-05-14T15:45:22.740Z,102549.20
2019-05-14T15:50:32.461Z,102546.02
2019-05-14T15:55:34.578Z,102539.17
2019-05-14T16:00:38.844Z,102537.74
2019-05-14T16:05:43.038Z,102548.56
2019-05-14T16:10:47.109Z,102545.10
2019-05-14T16:15:51.197Z,102535.03
2019-05-14T16:20:55.515Z,102534.46
2019-05-14T16:25:59.560Z,102529.05
2019-05-14T16:31:03.907Z,102528.67
2019-05-14T16:36:08.843Z,102533.28
2019-05-14T16:41:13.064Z,102528.47
2019-05-14T16:46:18.549Z,102524.17
2019-05-14T16:51:22.649Z,102515.79
2019-05-14T16:56:28.415Z,102523.11
2019-05-14T17:01:33.884Z,102519.61
2019-05-14T17:06:38.699Z,102518.98
2019-05-14T17:11:42.815Z,102520.77
2019-05-14T17:16:49.043Z,102516.23
2019-05-14T17:21:52.725Z,102518.98
2019-05-14T17:26:58.363Z,102522.20
2019-05-14T17:32:02.855Z,102515.11
2019-05-14T17:37:08.909Z,102515.91
2019-05-14T17:42:12.773Z,102527.54
2019-05-14T17:47:18.389Z,102529.01
2019-05-14T17:52:22.717Z,102532.18
2019-05-14T17:57:34.090Z,102530.74
2019-05-14T18:02:33.178Z,102530.80
2019-05-14T18:07:37.157Z,102525.75
2019-05-14T18:12:41.206Z,102520.80
2019-05-14T18:17:45.296Z,102529.52
2019-05-14T18:22:49.481Z,102529.95
2019-05-14T18:27:53.534Z,102528.45
2019-05-14T18:32:58.437Z,102533.50
2019-05-14T18:38:02.568Z,102530.82
2019-05-14T18:43:08.595Z,102531.69
2019-05-14T18:48:14.508Z,102536.66
2019-05-14T18:53:19.187Z,102531.19
2019-05-14T18:58:25.982Z,102537.46
2019-05-14T19:03:29.566Z,102534.16
2019-05-14T19:08:33.581Z,102535.17
2019-05-14T19:13:38.996Z,102533.34
2019-05-14T19:18:48.724Z,102531.10
2019-05-14T19:23:52.772Z,102531.95
2019-05-14T19:28:58.160Z,102531.13
2019-05-14T19:34:02.423Z,102527.80
2019-05-14T19:39:07.858Z,102516.36
2019-05-14T19:44:12.422Z,102517.80
2019-05-14T19:49:18.453Z,102512.89
2019-05-14T19:54:22.394Z,102509.75
2019-05-14T19:59:28.630Z,102513.59
2019-05-14T20:04:32.631Z,102518.13
2019-05-14T20:09:48.433Z,102511.32
2019-05-14T20:14:54.427Z,102510.16
2019-05-14T20:19:59.699Z,102511.24
2019-05-14T20:25:07.102Z,102512.06
2019-05-14T20:30:13.076Z,102504.63
2019-05-14T20:35:30.710Z,102502.88
2019-05-14T20:40:24.329Z,102494.65
2019-05-14T20:45:30.751Z,102500.05
2019-05-14T20:50:35.462Z,102501.88
2019-05-14T20:55:41.403Z,102499.41
2019-05-14T21:00:48.302Z,102500.33
2019-05-14T21:05:52.087Z,102499.49
2019-05-14T21:10:58.710Z,102500.38
2019-05-14T21:16:03.422Z,102501.05
2019-05-14T21:21:10.939Z,102506.08
2019-05-14T21:26:14.758Z,102497.72
2019-05-14T21:31:18.869Z,102485.70
2019-05-14T21:36:24.590Z,102488.44
2019-05-14T21:41:29.145Z,102485.99
2019-05-14T21:46:34.495Z,102481.53
2019-05-14T21:51:39.314Z,102483.46
2019-05-14T21:56:43.647Z,102473.77
2019-05-14T22:01:48.600Z,102480.53
2019-05-14T22:06:53.020Z,102477.48
2019-05-14T22:11:58.303Z,102484.92
2019-05-14T22:17:02.525Z,102469.16
2019-05-14T22:22:08.059Z,102463.86
2019-05-14T22:27:12.145Z,102464.99
2019-05-14T22:32:16.171Z,102464.36
2019-05-14T22:37:20.318Z,102459.59
2019-05-14T22:42:24.618Z,102453.26
2019-05-14T22:47:28.667Z,102454.39
2019-05-14T22:52:32.832Z,102450.84
2019-05-14T22:57:39.377Z,102452.04
2019-05-14T23:02:42.652Z,102446.73
2019-05-14T23:07:48.563Z,102434.63
2019-05-14T23:12:52.516Z,102432.88
2019-05-14T23:17:58.677Z,102427.80
2019-05-14T23:23:02.274Z,102421.74
2019-05-14T23:28:08.452Z,102421.25
2019-05-14T23:33:12.149Z,102415.05
2019-05-14T23:38:18.831Z,102415.52
2019-05-14T23:43:22.235Z,102406.27
2019-05-14T23:48:26.298Z,102407.98
2019-05-14T23:53:30.328Z,102406.12
2019-05-14T23:58:34.358Z,102407.60
